Time;durP1;ratioP1;P1;durP2;ratioP2;P2;SDS_P1;SDS_P2;PMS_P1;PMS_P2;Temp;Humidity;BMP_temperature;BMP_pressure;BME280_temperature;BME280_humidity;BME280_pressure;Samples;Min_cycle;Max_cycle;Signal;HPM_P1;HPM_P2
2023/06/07 00:00:51;;;;;;;6.90;5.30;;;;;;;;;;107959;278;38780;-35
2023/06/07 00:03:42;;;;;;;7.80;5.70;;;;;;;;;;107929;270;40712;-34
2023/06/07 00:06:19;;;;;;;7.30;5.40;;;;;;;;;;107950;278;43002;-34
2023/06/07 00:08:54;;;;;;;8.50;5.70;;;;;;;;;;107953;270;42162;-35
2023/06/07 00:11:29;;;;;;;7.60;5.50;;;;;;;;;;107972;274;38966;-37
2023/06/07 00:14:06;;;;;;;9.00;5.60;;;;;;;;;;107930;278;39747;-37
2023/06/07 00:16:44;;;;;;;8.80;5.40;;;;;;;;;;107917;278;49585;-37
2023/06/07 00:19:25;;;;;;;6.90;5.40;;;;;;;;;;107826;270;175477;-37
2023/06/07 00:22:01;;;;;;;7.80;5.90;;;;;;;;;;107953;270;38890;-36
2023/06/07 00:24:38;;;;;;;6.70;5.80;;;;;;;;;;107961;270;39715;-37
2023/06/07 00:27:12;;;;;;;7.00;6.00;;;;;;;;;;107915;274;50561;-36
2023/06/07 00:29:48;;;;;;;7.70;6.40;;;;;;;;;;107946;273;42240;-38
2023/06/07 00:32:25;;;;;;;8.70;6.00;;;;;;;;;;107981;278;38746;-37
2023/06/07 00:35:01;;;;;;;8.10;6.20;;;;;;;;;;107922;278;39419;-34
2023/06/07 00:37:36;;;;;;;7.40;6.20;;;;;;;;;;107969;278;49026;-34
2023/06/07 00:40:12;;;;;;;7.80;6.30;;;;;;;;;;107936;278;41918;-34
2023/06/07 00:42:46;;;;;;;8.10;6.10;;;;;;;;;;107954;270;38585;-36
2023/06/07 00:45:22;;;;;;;7.00;5.80;;;;;;;;;;107957;270;39441;-34
2023/06/07 00:47:56;;;;;;;7.20;6.20;;;;;;;;;;107952;274;49667;-35
2023/06/07 00:50:37;;;;;;;8.60;6.30;;;;;;;;;;107923;270;43268;-35
2023/06/07 00:53:13;;;;;;;7.60;6.00;;;;;;;;;;107936;275;40313;-34
2023/06/07 00:55:47;;;;;;;8.20;6.30;;;;;;;;;;107917;274;39714;-35
2023/06/07 00:58:25;;;;;;;8.50;6.10;;;;;;;;;;107972;278;43911;-35
2023/06/07 01:00:59;;;;;;;7.80;5.90;;;;;;;;;;107949;270;42253;-35
2023/06/07 01:03:36;;;;;;;8.30;5.80;;;;;;;;;;107958;270;38922;-34
2023/06/07 01:06:10;;;;;;;7.10;5.80;;;;;;;;;;107907;278;39749;-37
2023/06/07 01:08:47;;;;;;;10.20;6.50;;;;;;;;;;107985;278;42937;-38
2023/06/07 01:11:26;;;;;;;7.30;5.90;;;;;;;;;;107979;278;42249;-37
2023/06/07 01:14:01;;;;;;;7.70;5.80;;;;;;;;;;108010;278;38878;-39
2023/06/07 01:16:35;;;;;;;8.90;6.40;;;;;;;;;;107946;278;39982;-40
2023/06/07 01:19:16;;;;;;;8.10;5.90;;;;;;;;;;107995;270;43863;-39
2023/06/07 01:21:52;;;;;;;8.90;6.10;;;;;;;;;;107988;278;43307;-39
2023/06/07 01:24:29;;;;;;;8.30;6.30;;;;;;;;;;108028;275;39907;-40
2023/06/07 01:27:07;;;;;;;9.20;6.20;;;;;;;;;;107949;278;39671;-39
2023/06/07 01:29:43;;;;;;;8.00;6.00;;;;;;;;;;107554;278;560568;-40
2023/06/07 01:32:18;;;;;;;8.10;6.10;;;;;;;;;;108039;270;42298;-40
2023/06/07 01:34:54;;;;;;;7.50;6.00;;;;;;;;;;108046;270;38853;-39
2023/06/07 01:37:29;;;;;;;7.50;6.10;;;;;;;;;;108048;278;39900;-39
2023/06/07 01:40:05;;;;;;;8.40;6.30;;;;;;;;;;108062;278;42960;-39
2023/06/07 01:42:42;;;;;;;8.90;6.20;;;;;;;;;;108044;278;42150;-41
2023/06/07 01:45:17;;;;;;;7.70;6.50;;;;;;;;;;108041;278;38817;-39
2023/06/07 01:47:51;;;;;;;9.00;6.70;;;;;;;;;;108045;278;39690;-39
2023/06/07 01:50:27;;;;;;;7.20;6.30;;;;;;;;;;108097;270;42826;-39
2023/06/07 01:53:07;;;;;;;8.00;6.30;;;;;;;;;;108031;278;42262;-39
2023/06/07 01:55:41;;;;;;;8.50;6.20;;;;;;;;;;108048;270;40226;-39
2023/06/07 01:58:30;;;;;;;9.00;6.20;;;;;;;;;;108027;278;39745;-39
2023/06/07 02:01:19;;;;;;;7.30;6.20;;;;;;;;;;108055;278;42842;-39
2023/06/07 02:03:57;;;;;;;7.90;6.40;;;;;;;;;;108060;278;42143;-40
2023/06/07 02:06:35;;;;;;;10.70;6.60;;;;;;;;;;108090;270;38757;-40
2023/06/07 02:09:16;;;;;;;9.00;6.50;;;;;;;;;;108034;278;40876;-40
2023/06/07 02:11:55;;;;;;;8.30;6.20;;;;;;;;;;108041;278;42820;-39
2023/06/07 02:14:30;;;;;;;8.00;6.40;;;;;;;;;;108056;270;42131;-41
2023/06/07 02:17:08;;;;;;;7.80;6.20;;;;;;;;;;108062;274;38654;-40
2023/06/07 02:19:43;;;;;;;8.60;6.70;;;;;;;;;;108156;278;45381;-39
2023/06/07 02:22:22;;;;;;;8.30;6.30;;;;;;;;;;108009;278;43192;-39
2023/06/07 02:24:58;;;;;;;8.50;6.30;;;;;;;;;;108029;270;42540;-39
2023/06/07 02:27:40;;;;;;;8.20;6.20;;;;;;;;;;108048;270;38750;-40
2023/06/07 02:30:16;;;;;;;10.50;6.90;;;;;;;;;;108016;270;45897;-35
2023/06/07 02:32:54;;;;;;;7.90;6.40;;;;;;;;;;108056;278;42896;-35
2023/06/07 02:35:33;;;;;;;7.80;6.40;;;;;;;;;;108037;278;42250;-36
2023/06/07 02:38:08;;;;;;;8.00;6.40;;;;;;;;;;108024;270;38576;-35
2023/06/07 02:40:43;;;;;;;7.70;6.40;;;;;;;;;;107921;274;39699;-32
2023/06/07 02:43:20;;;;;;;8.40;6.40;;;;;;;;;;107957;278;43360;-35
2023/06/07 02:45:58;;;;;;;9.40;6.60;;;;;;;;;;107942;278;42285;-33
2023/06/07 02:48:34;;;;;;;9.70;6.70;;;;;;;;;;107931;270;39766;-34
2023/06/07 02:51:09;;;;;;;8.80;6.80;;;;;;;;;;107950;270;39777;-33
2023/06/07 02:53:44;;;;;;;8.70;6.70;;;;;;;;;;107958;278;42811;-32
2023/06/07 02:56:22;;;;;;;9.70;7.00;;;;;;;;;;107958;275;42247;-33
2023/06/07 02:58:58;;;;;;;8.10;6.40;;;;;;;;;;107914;270;38901;-32
2023/06/07 03:01:34;;;;;;;8.40;6.30;;;;;;;;;;107949;278;40776;-36
2023/06/07 03:04:11;;;;;;;8.20;6.50;;;;;;;;;;107952;274;43087;-33
2023/06/07 03:06:51;;;;;;;8.40;6.70;;;;;;;;;;107967;278;42172;-33
2023/06/07 03:09:26;;;;;;;8.70;6.90;;;;;;;;;;107890;270;39820;-33
2023/06/07 03:12:00;;;;;;;8.50;6.70;;;;;;;;;;107956;270;39992;-36
2023/06/07 03:14:33;;;;;;;9.10;6.60;;;;;;;;;;107938;270;42779;-37
2023/06/07 03:17:09;;;;;;;8.20;6.30;;;;;;;;;;108000;278;42344;-37
2023/06/07 03:19:46;;;;;;;8.70;6.80;;;;;;;;;;107942;278;40049;-37
2023/06/07 03:22:24;;;;;;;9.20;6.70;;;;;;;;;;107937;274;40842;-37
2023/06/07 03:25:01;;;;;;;8.30;6.60;;;;;;;;;;107938;278;43115;-37
2023/06/07 03:27:37;;;;;;;7.80;6.30;;;;;;;;;;107939;278;42461;-37
2023/06/07 03:30:14;;;;;;;8.80;6.40;;;;;;;;;;107928;278;38755;-37
2023/06/07 03:32:50;;;;;;;9.40;6.20;;;;;;;;;;107947;275;39731;-37
2023/06/07 03:35:26;;;;;;;8.20;6.30;;;;;;;;;;107974;270;42801;-37
2023/06/07 03:38:02;;;;;;;9.30;6.20;;;;;;;;;;107961;278;42217;-37
2023/06/07 03:40:37;;;;;;;8.10;6.40;;;;;;;;;;107912;278;39070;-38
2023/06/07 03:43:13;;;;;;;8.50;6.40;;;;;;;;;;107972;274;39708;-38
2023/06/07 03:45:50;;;;;;;9.20;6.50;;;;;;;;;;107838;278;175464;-37
2023/06/07 03:48:25;;;;;;;10.40;6.80;;;;;;;;;;108008;278;42122;-37
2023/06/07 03:51:04;;;;;;;8.70;6.40;;;;;;;;;;107911;277;38739;-37
2023/06/07 03:53:38;;;;;;;8.80;6.50;;;;;;;;;;107951;280;39665;-37
2023/06/07 03:56:15;;;;;;;8.40;6.20;;;;;;;;;;107937;270;42929;-37
2023/06/07 03:58:50;;;;;;;8.80;6.40;;;;;;;;;;107963;270;41918;-37
2023/06/07 04:01:26;;;;;;;8.80;6.00;;;;;;;;;;107919;274;38731;-37
2023/06/07 04:04:04;;;;;;;8.80;6.10;;;;;;;;;;107934;278;40009;-38
2023/06/07 04:06:42;;;;;;;7.50;6.10;;;;;;;;;;107942;270;42773;-38
2023/06/07 04:09:21;;;;;;;8.60;6.20;;;;;;;;;;107952;278;42319;-37
2023/06/07 04:11:57;;;;;;;9.10;5.90;;;;;;;;;;107937;270;38795;-37
2023/06/07 04:14:33;;;;;;;7.70;5.80;;;;;;;;;;107974;270;39944;-37
2023/06/07 04:17:08;;;;;;;9.30;5.90;;;;;;;;;;107956;270;42819;-37
2023/06/07 04:19:43;;;;;;;8.60;6.00;;;;;;;;;;107969;274;42103;-38
2023/06/07 04:22:38;;;;;;;9.80;6.00;;;;;;;;;;107916;270;44765;-37
2023/06/07 04:25:16;;;;;;;9.10;6.40;;;;;;;;;;107911;270;39710;-37
2023/06/07 04:27:51;;;;;;;8.90;6.10;;;;;;;;;;107943;274;42959;-37
2023/06/07 04:30:36;;;;;;;9.80;6.10;;;;;;;;;;107963;270;42621;-37
2023/06/07 04:33:14;;;;;;;8.90;5.90;;;;;;;;;;107851;278;175461;-37
2023/06/07 04:35:50;;;;;;;8.60;6.10;;;;;;;;;;107952;274;40472;-37
2023/06/07 04:38:29;;;;;;;9.30;6.20;;;;;;;;;;107979;270;42826;-37
2023/06/07 04:41:07;;;;;;;9.70;6.00;;;;;;;;;;107912;270;42262;-37
2023/06/07 04:43:48;;;;;;;8.90;6.00;;;;;;;;;;107967;278;39015;-38
2023/06/07 04:46:22;;;;;;;;;;;;;;;;;;107988;274;41240;-37
2023/06/07 04:48:58;;;;;;;8.90;5.90;;;;;;;;;;107931;278;42542;-37
2023/06/07 04:51:35;;;;;;;8.60;5.90;;;;;;;;;;107951;278;42242;-37
2023/06/07 04:54:16;;;;;;;10.00;5.90;;;;;;;;;;107977;274;39109;-37
2023/06/07 04:56:54;;;;;;;10.20;5.80;;;;;;;;;;107940;278;39807;-37
2023/06/07 04:59:34;;;;;;;8.90;5.60;;;;;;;;;;107946;278;42942;-37
2023/06/07 05:02:09;;;;;;;9.60;6.00;;;;;;;;;;107918;270;43367;-37
2023/06/07 05:04:44;;;;;;;11.10;5.80;;;;;;;;;;107954;278;39878;-37
2023/06/07 05:07:20;;;;;;;10.90;5.70;;;;;;;;;;107817;270;175540;-37
2023/06/07 05:09:54;;;;;;;10.50;5.90;;;;;;;;;;107976;270;42784;-37
2023/06/07 05:12:28;;;;;;;11.90;6.00;;;;;;;;;;107970;270;42163;-37
2023/06/07 05:15:05;;;;;;;10.80;5.50;;;;;;;;;;108014;270;38817;-37
2023/06/07 05:17:40;;;;;;;11.20;5.70;;;;;;;;;;108034;283;41606;-37
2023/06/07 05:20:26;;;;;;;9.50;5.50;;;;;;;;;;107996;278;42922;-37
2023/06/07 05:23:03;;;;;;;13.00;5.80;;;;;;;;;;107894;278;175473;-37
2023/06/07 05:25:38;;;;;;;10.00;5.60;;;;;;;;;;108029;278;38809;-37
2023/06/07 05:28:14;;;;;;;11.10;5.90;;;;;;;;;;107990;270;39790;-37
2023/06/07 05:30:51;;;;;;;12.10;5.30;;;;;;;;;;108040;270;42971;-37
2023/06/07 05:33:27;;;;;;;9.80;5.60;;;;;;;;;;107983;278;42164;-37
2023/06/07 05:36:02;;;;;;;12.20;5.70;;;;;;;;;;108028;274;38774;-37
2023/06/07 05:38:38;;;;;;;9.80;5.10;;;;;;;;;;108052;270;39670;-37
2023/06/07 05:41:11;;;;;;;10.50;5.20;;;;;;;;;;108020;278;42952;-37
2023/06/07 05:43:46;;;;;;;10.90;5.50;;;;;;;;;;108014;270;42260;-37
2023/06/07 05:46:21;;;;;;;10.30;5.50;;;;;;;;;;108041;278;38756;-37
2023/06/07 05:48:56;;;;;;;9.90;5.20;;;;;;;;;;108042;278;39704;-37
2023/06/07 05:51:33;;;;;;;10.20;5.70;;;;;;;;;;108059;278;42566;-37
2023/06/07 05:54:10;;;;;;;9.40;5.20;;;;;;;;;;108000;278;42271;-37
2023/06/07 05:56:47;;;;;;;8.60;5.10;;;;;;;;;;108056;270;39962;-37
2023/06/07 05:59:25;;;;;;;9.90;5.60;;;;;;;;;;107958;278;174375;-37
2023/06/07 06:02:02;;;;;;;9.10;4.70;;;;;;;;;;108072;270;42811;-37
2023/06/07 06:04:40;;;;;;;9.40;5.20;;;;;;;;;;108008;270;41860;-37
2023/06/07 06:07:19;;;;;;;9.50;5.20;;;;;;;;;;107404;270;892155;-37
2023/06/07 06:09:54;;;;;;;10.60;5.40;;;;;;;;;;107939;271;39770;-37
2023/06/07 06:12:31;;;;;;;8.70;4.90;;;;;;;;;;107952;278;195786;-37
2023/06/07 06:15:06;;;;;;;11.10;5.40;;;;;;;;;;108076;278;48175;-37
2023/06/07 06:17:41;;;;;;;9.60;5.20;;;;;;;;;;107948;274;39994;-37
2023/06/07 06:20:16;;;;;;;10.90;5.30;;;;;;;;;;107926;278;39868;-37
2023/06/07 06:22:51;;;;;;;9.90;5.00;;;;;;;;;;107977;270;42932;-37
2023/06/07 06:25:25;;;;;;;15.10;5.80;;;;;;;;;;107929;270;47846;-37
2023/06/07 06:28:01;;;;;;;10.00;5.30;;;;;;;;;;107862;274;175456;-38
2023/06/07 06:30:37;;;;;;;28.20;7.90;;;;;;;;;;107966;270;39695;-35
2023/06/07 06:33:11;;;;;;;14.90;6.20;;;;;;;;;;107997;270;42936;-34
2023/06/07 06:35:45;;;;;;;13.70;5.80;;;;;;;;;;107946;270;47889;-34
2023/06/07 06:38:20;;;;;;;12.20;5.70;;;;;;;;;;107970;278;38970;-34
2023/06/07 06:40:55;;;;;;;13.00;5.90;;;;;;;;;;107975;270;39702;-34
2023/06/07 06:43:31;;;;;;;26.60;7.40;;;;;;;;;;107956;278;42865;-37
2023/06/07 06:46:04;;;;;;;17.20;6.30;;;;;;;;;;107915;278;47868;-35
2023/06/07 06:48:42;;;;;;;15.30;6.20;;;;;;;;;;107993;270;39818;-34
2023/06/07 06:51:23;;;;;;;16.10;6.20;;;;;;;;;;107943;278;39684;-35
2023/06/07 06:53:57;;;;;;;11.40;5.40;;;;;;;;;;107934;278;43186;-35
2023/06/07 06:56:31;;;;;;;9.60;5.30;;;;;;;;;;107980;278;50294;-35
2023/06/07 06:59:06;;;;;;;12.00;5.50;;;;;;;;;;107955;270;38981;-35
2023/06/07 07:01:54;;;;;;;11.80;5.00;;;;;;;;;;107958;270;39758;-35
2023/06/07 07:04:35;;;;;;;9.50;5.10;;;;;;;;;;107946;270;42941;-35
2023/06/07 07:07:16;;;;;;;10.40;5.10;;;;;;;;;;107926;270;44164;-35
2023/06/07 07:09:54;;;;;;;11.80;5.40;;;;;;;;;;107945;270;38830;-35
2023/06/07 07:12:28;;;;;;;9.50;4.90;;;;;;;;;;108000;274;39859;-35
2023/06/07 07:15:04;;;;;;;9.40;4.20;;;;;;;;;;107926;270;42942;-35
2023/06/07 07:17:46;;;;;;;8.30;4.60;;;;;;;;;;107747;278;175441;-35
2023/06/07 07:20:22;;;;;;;8.40;4.90;;;;;;;;;;107974;278;38807;-35
2023/06/07 07:22:58;;;;;;;8.60;4.50;;;;;;;;;;107975;270;39895;-35
2023/06/07 07:25:44;;;;;;;10.00;4.40;;;;;;;;;;107991;278;42540;-41
2023/06/07 07:28:18;;;;;;;7.90;4.30;;;;;;;;;;107900;273;44422;-35
2023/06/07 07:30:54;;;;;;;8.10;4.20;;;;;;;;;;107943;269;39059;-36
2023/06/07 07:33:28;;;;;;;9.40;4.10;;;;;;;;;;107974;277;39668;-37
2023/06/07 07:36:08;;;;;;;7.90;4.40;;;;;;;;;;107920;277;42834;-37
2023/06/07 07:38:45;;;;;;;7.40;4.20;;;;;;;;;;107954;277;42259;-36
2023/06/07 07:41:21;;;;;;;7.80;3.80;;;;;;;;;;107958;269;38757;-37
2023/06/07 07:43:58;;;;;;;7.60;3.70;;;;;;;;;;108006;269;40722;-36
2023/06/07 07:46:36;;;;;;;8.10;3.80;;;;;;;;;;107947;269;44185;-37
2023/06/07 07:49:11;;;;;;;6.90;3.90;;;;;;;;;;107972;277;42168;-34
2023/06/07 07:51:45;;;;;;;7.50;4.00;;;;;;;;;;107976;277;38882;-36
2023/06/07 07:54:19;;;;;;;7.80;4.20;;;;;;;;;;107988;273;39516;-36
2023/06/07 07:56:53;;;;;;;8.80;4.10;;;;;;;;;;107924;277;43843;-35
2023/06/07 07:59:28;;;;;;;7.10;3.70;;;;;;;;;;107951;273;42241;-35
2023/06/07 08:02:03;;;;;;;7.30;3.80;;;;;;;;;;107969;277;39044;-34
2023/06/07 08:04:38;;;;;;;6.90;3.90;;;;;;;;;;107966;273;39810;-35
2023/06/07 08:07:15;;;;;;;6.50;3.70;;;;;;;;;;107946;277;42580;-35
2023/06/07 08:09:51;;;;;;;6.20;3.50;;;;;;;;;;107964;273;42171;-35
2023/06/07 08:12:27;;;;;;;7.20;3.70;;;;;;;;;;107966;278;38604;-36
2023/06/07 08:15:03;;;;;;;5.60;3.50;;;;;;;;;;107981;269;39701;-35
2023/06/07 08:17:37;;;;;;;5.80;3.20;;;;;;;;;;107910;269;43279;-35
2023/06/07 08:20:14;;;;;;;6.60;3.50;;;;;;;;;;107954;269;43167;-35
2023/06/07 08:22:50;;;;;;;22.10;5.50;;;;;;;;;;107975;277;40893;-36
2023/06/07 08:25:24;;;;;;;10.80;3.80;;;;;;;;;;107922;277;39575;-36
2023/06/07 08:27:57;;;;;;;7.70;3.50;;;;;;;;;;107937;277;44928;-36
2023/06/07 08:30:32;;;;;;;7.00;3.40;;;;;;;;;;107966;277;43114;-36
2023/06/07 08:33:07;;;;;;;6.80;3.60;;;;;;;;;;107960;269;38739;-36
2023/06/07 08:35:41;;;;;;;6.80;3.30;;;;;;;;;;107972;277;39756;-36
2023/06/07 08:38:17;;;;;;;5.60;3.30;;;;;;;;;;107903;277;42820;-36
2023/06/07 08:40:53;;;;;;;5.60;3.50;;;;;;;;;;107957;277;42248;-35
2023/06/07 08:43:28;;;;;;;7.30;3.70;;;;;;;;;;107961;277;38735;-35
2023/06/07 08:46:05;;;;;;;6.30;3.40;;;;;;;;;;107959;269;39694;-34
2023/06/07 08:48:42;;;;;;;6.00;3.60;;;;;;;;;;108025;277;48671;-35
2023/06/07 08:51:19;;;;;;;5.70;3.30;;;;;;;;;;107959;269;43938;-35
2023/06/07 08:54:01;;;;;;;5.70;3.10;;;;;;;;;;107944;277;38699;-36
2023/06/07 08:56:38;;;;;;;6.10;3.20;;;;;;;;;;107917;271;40819;-35
2023/06/07 08:59:13;;;;;;;6.20;3.10;;;;;;;;;;107955;269;50535;-35
2023/06/07 09:01:48;;;;;;;6.20;3.40;;;;;;;;;;107950;275;43275;-35
2023/06/07 09:04:23;;;;;;;6.60;3.30;;;;;;;;;;108003;273;38926;-36
2023/06/07 09:06:57;;;;;;;9.70;3.40;;;;;;;;;;107910;269;39700;-35
2023/06/07 09:09:31;;;;;;;7.50;3.50;;;;;;;;;;107917;277;50038;-35
2023/06/07 09:12:08;;;;;;;6.40;3.60;;;;;;;;;;107933;269;43291;-36
2023/06/07 09:14:48;;;;;;;7.10;3.70;;;;;;;;;;107942;269;38518;-36
2023/06/07 09:17:24;;;;;;;6.60;3.70;;;;;;;;;;107897;269;40029;-35
2023/06/07 09:19:58;;;;;;;6.60;4.00;;;;;;;;;;107952;277;44103;-35
2023/06/07 09:22:33;;;;;;;6.00;3.70;;;;;;;;;;107955;269;43397;-35
2023/06/07 09:25:12;;;;;;;5.70;3.80;;;;;;;;;;107967;277;39990;-35
2023/06/07 09:27:54;;;;;;;6.40;3.70;;;;;;;;;;107557;277;536739;-36
2023/06/07 09:30:28;;;;;;;5.60;3.70;;;;;;;;;;107901;279;44234;-36
2023/06/07 09:33:02;;;;;;;6.00;3.90;;;;;;;;;;107986;277;42136;-36
2023/06/07 09:35:36;;;;;;;6.20;4.00;;;;;;;;;;107994;277;38754;-35
2023/06/07 09:38:10;;;;;;;5.30;3.60;;;;;;;;;;107925;277;39750;-36
2023/06/07 09:40:54;;;;;;;6.50;4.10;;;;;;;;;;107951;269;44428;-36
2023/06/07 09:43:29;;;;;;;6.00;3.90;;;;;;;;;;107987;269;42176;-36
2023/06/07 09:46:04;;;;;;;6.60;4.20;;;;;;;;;;107943;277;38828;-36
2023/06/07 09:48:49;;;;;;;5.80;4.00;;;;;;;;;;107993;277;40823;-36
2023/06/07 09:51:27;;;;;;;6.30;3.70;;;;;;;;;;107962;277;42894;-36
2023/06/07 09:54:05;;;;;;;6.10;4.10;;;;;;;;;;107944;269;42560;-36
2023/06/07 09:56:42;;;;;;;6.30;3.90;;;;;;;;;;107926;277;38785;-36
2023/06/07 09:59:17;;;;;;;5.70;4.10;;;;;;;;;;107929;269;40941;-37
2023/06/07 10:01:52;;;;;;;5.70;4.10;;;;;;;;;;107963;269;43877;-35
2023/06/07 10:04:27;;;;;;;6.10;4.00;;;;;;;;;;107806;269;175330;-36
2023/06/07 10:07:06;;;;;;;6.10;4.00;;;;;;;;;;107934;273;38805;-36
2023/06/07 10:09:43;;;;;;;5.70;4.10;;;;;;;;;;107886;269;39695;-36
2023/06/07 10:12:19;;;;;;;5.90;4.20;;;;;;;;;;107958;269;43996;-36
2023/06/07 10:14:59;;;;;;;6.90;4.40;;;;;;;;;;107978;269;42135;-36
2023/06/07 10:17:45;;;;;;;7.50;4.60;;;;;;;;;;107954;269;38885;-36
2023/06/07 10:20:27;;;;;;;6.60;4.50;;;;;;;;;;107961;277;40087;-36
2023/06/07 10:23:07;;;;;;;6.20;4.30;;;;;;;;;;107924;269;44272;-38
2023/06/07 10:25:45;;;;;;;5.70;4.00;;;;;;;;;;108032;277;42094;-38
2023/06/07 10:28:27;;;;;;;6.90;4.20;;;;;;;;;;107942;276;40126;-37
2023/06/07 10:31:08;;;;;;;6.10;3.70;;;;;;;;;;107930;270;45771;-37
2023/06/07 10:33:46;;;;;;;5.90;4.20;;;;;;;;;;107916;270;44005;-37
2023/06/07 10:36:23;;;;;;;7.20;4.20;;;;;;;;;;107923;270;42130;-36
2023/06/07 10:38:59;;;;;;;5.60;3.90;;;;;;;;;;107887;279;38839;-37
2023/06/07 10:41:35;;;;;;;6.70;4.20;;;;;;;;;;107914;270;45557;-38
2023/06/07 10:44:12;;;;;;;6.00;3.90;;;;;;;;;;107946;270;44072;-36
2023/06/07 10:46:46;;;;;;;6.40;3.70;;;;;;;;;;107988;270;42162;-36
2023/06/07 10:49:38;;;;;;;5.70;3.90;;;;;;;;;;107889;270;39955;-37
2023/06/07 10:52:15;;;;;;;6.40;3.60;;;;;;;;;;107913;270;39506;-37
2023/06/07 10:54:51;;;;;;;5.80;4.20;;;;;;;;;;107932;279;42946;-36
2023/06/07 10:57:41;;;;;;;6.00;3.70;;;;;;;;;;107941;279;43415;-37
2023/06/07 11:00:33;;;;;;;5.80;3.90;;;;;;;;;;107893;270;38751;-37
2023/06/07 11:03:43;;;;;;;6.20;3.80;;;;;;;;;;107934;278;39771;-38
2023/06/07 11:06:20;;;;;;;5.90;4.00;;;;;;;;;;107957;279;42828;-38
2023/06/07 11:09:22;;;;;;;5.30;3.80;;;;;;;;;;107925;270;42243;-38
2023/06/07 11:11:56;;;;;;;5.00;3.40;;;;;;;;;;107916;279;38596;-38
2023/06/07 11:14:30;;;;;;;5.90;3.90;;;;;;;;;;107934;278;39708;-36
2023/06/07 11:17:05;;;;;;;7.10;4.10;;;;;;;;;;107929;278;43980;-37
2023/06/07 11:19:59;;;;;;;5.70;4.00;;;;;;;;;;107919;280;43404;-37
2023/06/07 11:22:34;;;;;;;5.00;3.60;;;;;;;;;;107894;271;44812;-36
2023/06/07 11:25:18;;;;;;;5.30;3.70;;;;;;;;;;107927;283;39834;-36
2023/06/07 11:27:57;;;;;;;6.10;3.60;;;;;;;;;;108020;269;43886;-37
2023/06/07 11:30:36;;;;;;;4.90;3.70;;;;;;;;;;107907;269;42181;-38
2023/06/07 11:33:14;;;;;;;6.40;3.80;;;;;;;;;;107967;269;39063;-38
2023/06/07 11:35:49;;;;;;;5.30;3.20;;;;;;;;;;107946;273;42171;-39
2023/06/07 11:38:26;;;;;;;5.50;3.70;;;;;;;;;;107965;269;44161;-37
2023/06/07 11:41:03;;;;;;;6.20;3.70;;;;;;;;;;107930;277;43220;-38
2023/06/07 11:43:37;;;;;;;5.50;3.50;;;;;;;;;;107908;277;38919;-35
2023/06/07 11:46:15;;;;;;;6.10;3.70;;;;;;;;;;107969;277;40802;-34
2023/06/07 11:48:49;;;;;;;5.90;3.50;;;;;;;;;;107943;277;43967;-35
2023/06/07 11:51:24;;;;;;;6.30;3.70;;;;;;;;;;107932;273;42114;-35
2023/06/07 11:54:02;;;;;;;5.40;3.40;;;;;;;;;;107967;269;39936;-36
2023/06/07 11:56:37;;;;;;;5.80;3.80;;;;;;;;;;107970;269;40048;-35
2023/06/07 11:59:15;;;;;;;5.90;3.60;;;;;;;;;;107942;277;42928;-36
2023/06/07 12:01:53;;;;;;;5.50;3.80;;;;;;;;;;107935;271;42137;-36
2023/06/07 12:04:27;;;;;;;5.30;3.70;;;;;;;;;;107976;277;38755;-36
2023/06/07 12:07:19;;;;;;;5.30;3.70;;;;;;;;;;107967;269;41074;-36
2023/06/07 12:09:55;;;;;;;6.50;3.80;;;;;;;;;;107972;269;43107;-36
2023/06/07 12:12:29;;;;;;;6.10;3.80;;;;;;;;;;107989;269;43483;-38
2023/06/07 12:15:09;;;;;;;6.00;3.80;;;;;;;;;;107979;277;38834;-38
2023/06/07 12:17:45;;;;;;;5.40;3.60;;;;;;;;;;107976;269;40204;-37
2023/06/07 12:20:20;;;;;;;5.60;3.70;;;;;;;;;;107939;277;42911;-37
2023/06/07 12:22:54;;;;;;;5.20;3.50;;;;;;;;;;107952;269;42204;-37
2023/06/07 12:25:34;;;;;;;5.70;3.50;;;;;;;;;;107952;269;39000;-37
2023/06/07 12:28:11;;;;;;;5.30;3.60;;;;;;;;;;107939;269;39934;-37
2023/06/07 12:30:49;;;;;;;5.30;3.40;;;;;;;;;;107970;273;42915;-37
2023/06/07 12:33:26;;;;;;;6.00;3.80;;;;;;;;;;107922;275;43319;-37
2023/06/07 12:36:00;;;;;;;5.50;3.30;;;;;;;;;;107948;277;38902;-37
2023/06/07 12:38:34;;;;;;;6.50;3.50;;;;;;;;;;107950;269;39833;-36
2023/06/07 12:41:08;;;;;;;5.20;3.40;;;;;;;;;;107936;269;43122;-36
2023/06/07 12:43:52;;;;;;;5.60;3.70;;;;;;;;;;107919;277;42029;-37
2023/06/07 12:46:26;;;;;;;5.60;3.50;;;;;;;;;;107949;269;40952;-38
2023/06/07 12:49:01;;;;;;;5.70;3.40;;;;;;;;;;107955;273;40682;-37
2023/06/07 12:51:36;;;;;;;5.30;3.40;;;;;;;;;;107941;269;42815;-36
2023/06/07 12:54:12;;;;;;;4.90;3.20;;;;;;;;;;107926;269;42115;-36
2023/06/07 12:56:46;;;;;;;5.60;3.30;;;;;;;;;;107923;269;38842;-36
2023/06/07 12:59:20;;;;;;;4.70;3.30;;;;;;;;;;107939;269;40731;-36
2023/06/07 13:01:56;;;;;;;5.60;3.50;;;;;;;;;;107976;273;42854;-36
2023/06/07 13:04:30;;;;;;;4.70;3.30;;;;;;;;;;107880;277;42278;-36
2023/06/07 13:07:04;;;;;;;5.80;3.30;;;;;;;;;;107947;269;39115;-36
2023/06/07 13:09:39;;;;;;;6.10;3.50;;;;;;;;;;107945;277;40822;-37
2023/06/07 13:12:14;;;;;;;5.30;3.40;;;;;;;;;;107963;269;43237;-36
2023/06/07 13:14:48;;;;;;;5.10;3.50;;;;;;;;;;108067;277;48925;-36
2023/06/07 13:17:22;;;;;;;5.50;3.60;;;;;;;;;;107941;277;40012;-36
2023/06/07 13:19:55;;;;;;;5.70;3.40;;;;;;;;;;107976;269;39710;-36
2023/06/07 13:22:31;;;;;;;5.70;3.80;;;;;;;;;;107958;277;43916;-36
2023/06/07 13:25:06;;;;;;;5.30;3.40;;;;;;;;;;107890;277;50044;-37
2023/06/07 13:27:41;;;;;;;5.20;3.60;;;;;;;;;;107999;277;38759;-38
2023/06/07 13:30:16;;;;;;;5.80;3.60;;;;;;;;;;107960;269;40791;-38
2023/06/07 13:32:52;;;;;;;5.10;3.40;;;;;;;;;;107920;277;42805;-38
2023/06/07 13:35:26;;;;;;;6.00;3.60;;;;;;;;;;107928;269;48858;-38
2023/06/07 13:38:05;;;;;;;5.00;3.30;;;;;;;;;;107957;277;38682;-38
2023/06/07 13:40:38;;;;;;;5.80;3.60;;;;;;;;;;107938;269;40874;-38
2023/06/07 13:43:12;;;;;;;5.60;3.50;;;;;;;;;;107944;277;42987;-38
2023/06/07 13:45:46;;;;;;;5.60;3.60;;;;;;;;;;107922;277;47753;-38
2023/06/07 13:48:20;;;;;;;5.80;3.50;;;;;;;;;;107949;277;38771;-38
2023/06/07 13:50:54;;;;;;;6.10;3.70;;;;;;;;;;107948;269;40868;-37
2023/06/07 13:53:28;;;;;;;6.30;3.70;;;;;;;;;;107911;269;42836;-37
2023/06/07 13:56:05;;;;;;;5.30;3.50;;;;;;;;;;107920;273;49625;-38
2023/06/07 13:58:39;;;;;;;6.00;3.80;;;;;;;;;;107860;269;174930;-38
2023/06/07 14:01:13;;;;;;;6.30;3.70;;;;;;;;;;107928;273;39673;-38
2023/06/07 14:03:47;;;;;;;5.80;3.40;;;;;;;;;;107969;273;43183;-37
2023/06/07 14:06:23;;;;;;;6.90;3.70;;;;;;;;;;107917;269;47845;-37
2023/06/07 14:08:57;;;;;;;5.40;3.40;;;;;;;;;;107948;277;38951;-37
2023/06/07 14:11:33;;;;;;;5.20;3.70;;;;;;;;;;107907;273;40132;-37
2023/06/07 14:14:07;;;;;;;5.40;3.60;;;;;;;;;;107947;277;42959;-38
2023/06/07 14:16:41;;;;;;;5.00;3.30;;;;;;;;;;107924;269;48260;-38
2023/06/07 14:19:15;;;;;;;5.00;3.50;;;;;;;;;;107984;277;41199;-37
2023/06/07 14:21:49;;;;;;;4.90;3.40;;;;;;;;;;107949;269;39631;-38
2023/06/07 14:24:23;;;;;;;5.80;3.70;;;;;;;;;;107821;277;175295;-38
2023/06/07 14:26:57;;;;;;;4.60;3.20;;;;;;;;;;107820;277;175282;-37
2023/06/07 14:29:31;;;;;;;5.30;3.50;;;;;;;;;;107933;269;38756;-38
2023/06/07 14:32:09;;;;;;;5.80;3.20;;;;;;;;;;107962;269;40008;-37
2023/06/07 14:34:43;;;;;;;5.00;3.20;;;;;;;;;;107975;269;42958;-37
2023/06/07 14:37:17;;;;;;;5.10;3.10;;;;;;;;;;107908;277;49251;-38
2023/06/07 14:39:51;;;;;;;5.10;3.20;;;;;;;;;;107914;277;38771;-38
2023/06/07 14:42:25;;;;;;;4.90;3.30;;;;;;;;;;107944;275;40798;-38
2023/06/07 14:45:00;;;;;;;5.50;3.10;;;;;;;;;;107957;269;43221;-38
2023/06/07 14:47:33;;;;;;;4.90;3.30;;;;;;;;;;108056;277;47863;-38
2023/06/07 14:50:09;;;;;;;4.70;3.40;;;;;;;;;;107954;277;39193;-38
2023/06/07 14:52:43;;;;;;;5.00;3.30;;;;;;;;;;107979;269;39895;-38
2023/06/07 14:55:17;;;;;;;5.50;3.50;;;;;;;;;;107943;273;43173;-38
2023/06/07 14:57:51;;;;;;;5.10;3.20;;;;;;;;;;107310;273;890360;-38
2023/06/07 15:00:29;;;;;;;6.60;3.30;;;;;;;;;;107982;269;38943;-38
2023/06/07 15:03:03;;;;;;;4.80;3.30;;;;;;;;;;107969;269;39670;-37
2023/06/07 15:05:37;;;;;;;5.10;3.10;;;;;;;;;;107911;271;43107;-37
2023/06/07 15:08:12;;;;;;;4.90;3.30;;;;;;;;;;107923;269;47924;-37
2023/06/07 15:10:46;;;;;;;4.30;3.10;;;;;;;;;;107933;269;39956;-37
2023/06/07 15:13:21;;;;;;;4.90;3.10;;;;;;;;;;107927;269;39427;-35
2023/06/07 15:15:57;;;;;;;4.90;3.20;;;;;;;;;;107965;269;42816;-36
2023/06/07 15:18:31;;;;;;;4.60;3.40;;;;;;;;;;108065;277;47822;-36
2023/06/07 15:21:05;;;;;;;4.70;3.40;;;;;;;;;;107980;269;38811;-36
2023/06/07 15:23:41;;;;;;;5.40;3.70;;;;;;;;;;107910;277;39897;-36
2023/06/07 15:26:16;;;;;;;5.00;3.20;;;;;;;;;;107939;278;42631;-36
2023/06/07 15:28:51;;;;;;;4.80;3.40;;;;;;;;;;107992;271;49921;-36
2023/06/07 15:31:25;;;;;;;5.20;3.40;;;;;;;;;;108018;278;39885;-36
2023/06/07 15:34:00;;;;;;;5.00;3.50;;;;;;;;;;107994;271;41087;-36
2023/06/07 15:36:35;;;;;;;4.90;3.30;;;;;;;;;;107357;271;891337;-36